sensor_id;sensor_type;location;lat;lon;timestamp;P1;durP1;ratioP1;P2;durP2;ratioP2
72117;SDS011;59992;47.490;8.736;2023-08-12T00:01:56;6.90;;;4.40;;
72117;SDS011;59992;47.490;8.736;2023-08-12T00:04:46;6.40;;;4.60;;
72117;SDS011;59992;47.490;8.736;2023-08-12T00:07:37;8.30;;;5.40;;
72117;SDS011;59992;47.490;8.736;2023-08-12T00:10:28;8.30;;;4.90;;
72117;SDS011;59992;47.490;8.736;2023-08-12T00:13:19;7.00;;;5.10;;
72117;SDS011;59992;47.490;8.736;2023-08-12T00:16:09;6.00;;;4.50;;
72117;SDS011;59992;47.490;8.736;2023-08-12T00:18:59;6.40;;;4.90;;
72117;SDS011;59992;47.490;8.736;2023-08-12T00:21:50;5.70;;;4.40;;
72117;SDS011;59992;47.490;8.736;2023-08-12T00:24:40;6.70;;;4.70;;
72117;SDS011;59992;47.490;8.736;2023-08-12T00:27:31;7.70;;;3.90;;
72117;SDS011;59992;47.490;8.736;2023-08-12T00:30:21;7.00;;;5.10;;
72117;SDS011;59992;47.490;8.736;2023-08-12T00:33:11;8.10;;;6.00;;
72117;SDS011;59992;47.490;8.736;2023-08-12T00:36:02;10.20;;;7.20;;
72117;SDS011;59992;47.490;8.736;2023-08-12T00:38:53;7.80;;;4.40;;
72117;SDS011;59992;47.490;8.736;2023-08-12T00:41:43;5.50;;;3.90;;
72117;SDS011;59992;47.490;8.736;2023-08-12T00:44:33;8.10;;;4.00;;
72117;SDS011;59992;47.490;8.736;2023-08-12T00:47:23;5.90;;;3.90;;
72117;SDS011;59992;47.490;8.736;2023-08-12T00:50:14;5.90;;;3.50;;
72117;SDS011;59992;47.490;8.736;2023-08-12T00:53:04;5.80;;;3.80;;
72117;SDS011;59992;47.490;8.736;2023-08-12T00:55:55;5.20;;;3.70;;
72117;SDS011;59992;47.490;8.736;2023-08-12T00:58:45;5.30;;;3.90;;
72117;SDS011;59992;47.490;8.736;2023-08-12T01:01:36;6.00;;;3.80;;
72117;SDS011;59992;47.490;8.736;2023-08-12T01:04:29;6.00;;;4.00;;
72117;SDS011;59992;47.490;8.736;2023-08-12T01:07:19;6.40;;;3.70;;
72117;SDS011;59992;47.490;8.736;2023-08-12T01:10:09;5.30;;;4.10;;
72117;SDS011;59992;47.490;8.736;2023-08-12T01:13:06;5.70;;;4.10;;
72117;SDS011;59992;47.490;8.736;2023-08-12T01:16:01;5.20;;;3.80;;
72117;SDS011;59992;47.490;8.736;2023-08-12T01:18:53;5.40;;;3.70;;
72117;SDS011;59992;47.490;8.736;2023-08-12T01:21:44;6.80;;;4.30;;
72117;SDS011;59992;47.490;8.736;2023-08-12T01:24:38;5.00;;;4.00;;
72117;SDS011;59992;47.490;8.736;2023-08-12T01:27:29;6.00;;;4.60;;
72117;SDS011;59992;47.490;8.736;2023-08-12T01:30:20;8.10;;;4.70;;
72117;SDS011;59992;47.490;8.736;2023-08-12T01:33:12;6.20;;;4.10;;
72117;SDS011;59992;47.490;8.736;2023-08-12T01:36:11;4.80;;;3.90;;
72117;SDS011;59992;47.490;8.736;2023-08-12T01:39:05;8.70;;;4.40;;
72117;SDS011;59992;47.490;8.736;2023-08-12T01:41:57;6.30;;;4.00;;
72117;SDS011;59992;47.490;8.736;2023-08-12T01:44:47;7.30;;;4.10;;
72117;SDS011;59992;47.490;8.736;2023-08-12T01:47:38;7.30;;;4.30;;
72117;SDS011;59992;47.490;8.736;2023-08-12T01:50:30;8.20;;;4.40;;
72117;SDS011;59992;47.490;8.736;2023-08-12T01:53:21;6.10;;;4.20;;
72117;SDS011;59992;47.490;8.736;2023-08-12T01:56:11;5.80;;;4.60;;
72117;SDS011;59992;47.490;8.736;2023-08-12T01:59:01;7.20;;;3.90;;
72117;SDS011;59992;47.490;8.736;2023-08-12T02:01:52;5.80;;;4.20;;
72117;SDS011;59992;47.490;8.736;2023-08-12T02:04:42;6.70;;;4.20;;
72117;SDS011;59992;47.490;8.736;2023-08-12T02:07:32;6.70;;;4.50;;
72117;SDS011;59992;47.490;8.736;2023-08-12T02:10:22;6.60;;;4.40;;
72117;SDS011;59992;47.490;8.736;2023-08-12T02:13:12;6.10;;;4.40;;
72117;SDS011;59992;47.490;8.736;2023-08-12T02:16:03;7.10;;;4.80;;
72117;SDS011;59992;47.490;8.736;2023-08-12T02:18:53;6.20;;;4.30;;
72117;SDS011;59992;47.490;8.736;2023-08-12T02:21:43;6.20;;;4.50;;
72117;SDS011;59992;47.490;8.736;2023-08-12T02:24:33;5.30;;;3.90;;
72117;SDS011;59992;47.490;8.736;2023-08-12T02:27:24;5.80;;;4.30;;
72117;SDS011;59992;47.490;8.736;2023-08-12T02:30:14;6.20;;;3.80;;
72117;SDS011;59992;47.490;8.736;2023-08-12T02:33:04;5.30;;;4.00;;
72117;SDS011;59992;47.490;8.736;2023-08-12T02:35:54;6.60;;;4.10;;
72117;SDS011;59992;47.490;8.736;2023-08-12T02:38:45;7.40;;;4.10;;
72117;SDS011;59992;47.490;8.736;2023-08-12T02:41:35;5.40;;;4.00;;
72117;SDS011;59992;47.490;8.736;2023-08-12T02:44:25;6.30;;;4.00;;
72117;SDS011;59992;47.490;8.736;2023-08-12T02:47:16;6.00;;;4.40;;
72117;SDS011;59992;47.490;8.736;2023-08-12T02:50:08;6.80;;;4.10;;
72117;SDS011;59992;47.490;8.736;2023-08-12T02:52:58;6.40;;;4.10;;
72117;SDS011;59992;47.490;8.736;2023-08-12T02:55:48;7.30;;;3.90;;
72117;SDS011;59992;47.490;8.736;2023-08-12T02:58:39;4.80;;;3.90;;
72117;SDS011;59992;47.490;8.736;2023-08-12T03:01:29;5.10;;;4.00;;
72117;SDS011;59992;47.490;8.736;2023-08-12T03:04:20;7.20;;;4.30;;
72117;SDS011;59992;47.490;8.736;2023-08-12T03:07:10;6.10;;;4.50;;
72117;SDS011;59992;47.490;8.736;2023-08-12T03:10:00;5.80;;;3.90;;
72117;SDS011;59992;47.490;8.736;2023-08-12T03:12:50;9.30;;;3.90;;
72117;SDS011;59992;47.490;8.736;2023-08-12T03:15:40;5.20;;;3.90;;
72117;SDS011;59992;47.490;8.736;2023-08-12T03:18:30;5.70;;;4.30;;
72117;SDS011;59992;47.490;8.736;2023-08-12T03:21:21;7.00;;;4.20;;
72117;SDS011;59992;47.490;8.736;2023-08-12T03:24:10;7.00;;;4.50;;
72117;SDS011;59992;47.490;8.736;2023-08-12T03:27:00;7.30;;;4.30;;
72117;SDS011;59992;47.490;8.736;2023-08-12T03:29:51;5.30;;;3.80;;
72117;SDS011;59992;47.490;8.736;2023-08-12T03:32:41;6.70;;;3.90;;
72117;SDS011;59992;47.490;8.736;2023-08-12T03:35:31;5.80;;;3.90;;
72117;SDS011;59992;47.490;8.736;2023-08-12T03:38:21;7.60;;;4.30;;
72117;SDS011;59992;47.490;8.736;2023-08-12T03:41:11;8.10;;;4.60;;
72117;SDS011;59992;47.490;8.736;2023-08-12T03:44:01;8.30;;;4.40;;
72117;SDS011;59992;47.490;8.736;2023-08-12T03:46:52;5.80;;;4.00;;
72117;SDS011;59992;47.490;8.736;2023-08-12T03:49:42;5.00;;;3.90;;
72117;SDS011;59992;47.490;8.736;2023-08-12T03:52:32;7.20;;;4.80;;
72117;SDS011;59992;47.490;8.736;2023-08-12T03:55:23;5.80;;;4.00;;
72117;SDS011;59992;47.490;8.736;2023-08-12T03:58:13;6.90;;;4.10;;
72117;SDS011;59992;47.490;8.736;2023-08-12T04:01:04;7.70;;;4.40;;
72117;SDS011;59992;47.490;8.736;2023-08-12T04:03:54;6.90;;;4.20;;
72117;SDS011;59992;47.490;8.736;2023-08-12T04:06:44;6.50;;;4.30;;
72117;SDS011;59992;47.490;8.736;2023-08-12T04:09:35;7.00;;;4.20;;
72117;SDS011;59992;47.490;8.736;2023-08-12T04:12:25;6.00;;;4.10;;
72117;SDS011;59992;47.490;8.736;2023-08-12T04:15:15;6.90;;;4.70;;
72117;SDS011;59992;47.490;8.736;2023-08-12T04:18:06;5.30;;;4.10;;
72117;SDS011;59992;47.490;8.736;2023-08-12T04:20:56;5.80;;;4.10;;
72117;SDS011;59992;47.490;8.736;2023-08-12T04:23:46;6.30;;;4.60;;
72117;SDS011;59992;47.490;8.736;2023-08-12T04:26:36;6.70;;;4.20;;
72117;SDS011;59992;47.490;8.736;2023-08-12T04:29:27;6.60;;;3.70;;
72117;SDS011;59992;47.490;8.736;2023-08-12T04:32:17;5.50;;;3.70;;
72117;SDS011;59992;47.490;8.736;2023-08-12T04:35:08;5.60;;;4.50;;
72117;SDS011;59992;47.490;8.736;2023-08-12T04:37:58;6.40;;;4.30;;
72117;SDS011;59992;47.490;8.736;2023-08-12T04:40:48;7.10;;;4.50;;
72117;SDS011;59992;47.490;8.736;2023-08-12T04:43:40;4.90;;;3.90;;
72117;SDS011;59992;47.490;8.736;2023-08-12T04:46:31;7.80;;;4.50;;
72117;SDS011;59992;47.490;8.736;2023-08-12T04:49:21;5.30;;;4.00;;
72117;SDS011;59992;47.490;8.736;2023-08-12T04:52:13;5.40;;;4.00;;
72117;SDS011;59992;47.490;8.736;2023-08-12T04:55:04;7.30;;;4.20;;
72117;SDS011;59992;47.490;8.736;2023-08-12T04:57:55;5.60;;;4.30;;
72117;SDS011;59992;47.490;8.736;2023-08-12T05:00:45;6.00;;;4.20;;
72117;SDS011;59992;47.490;8.736;2023-08-12T05:03:35;5.30;;;4.10;;
72117;SDS011;59992;47.490;8.736;2023-08-12T05:06:25;7.30;;;3.90;;
72117;SDS011;59992;47.490;8.736;2023-08-12T05:09:15;4.90;;;3.70;;
72117;SDS011;59992;47.490;8.736;2023-08-12T05:12:06;6.50;;;4.20;;
72117;SDS011;59992;47.490;8.736;2023-08-12T05:14:57;6.70;;;4.10;;
72117;SDS011;59992;47.490;8.736;2023-08-12T05:17:47;7.60;;;4.10;;
72117;SDS011;59992;47.490;8.736;2023-08-12T05:20:37;5.50;;;4.30;;
72117;SDS011;59992;47.490;8.736;2023-08-12T05:23:27;7.40;;;4.00;;
72117;SDS011;59992;47.490;8.736;2023-08-12T05:26:18;7.90;;;4.00;;
72117;SDS011;59992;47.490;8.736;2023-08-12T05:29:08;5.60;;;3.80;;
72117;SDS011;59992;47.490;8.736;2023-08-12T05:31:58;5.30;;;3.90;;
72117;SDS011;59992;47.490;8.736;2023-08-12T05:34:51;4.60;;;3.50;;
72117;SDS011;59992;47.490;8.736;2023-08-12T05:37:42;7.60;;;4.10;;
72117;SDS011;59992;47.490;8.736;2023-08-12T05:40:32;5.90;;;3.70;;
72117;SDS011;59992;47.490;8.736;2023-08-12T05:43:22;5.40;;;3.50;;
72117;SDS011;59992;47.490;8.736;2023-08-12T05:46:13;7.30;;;3.50;;
72117;SDS011;59992;47.490;8.736;2023-08-12T05:49:03;5.40;;;3.30;;
72117;SDS011;59992;47.490;8.736;2023-08-12T05:51:53;4.50;;;3.20;;
72117;SDS011;59992;47.490;8.736;2023-08-12T05:54:44;6.00;;;3.00;;
72117;SDS011;59992;47.490;8.736;2023-08-12T05:57:34;6.60;;;3.70;;
72117;SDS011;59992;47.490;8.736;2023-08-12T06:00:25;4.70;;;3.00;;
72117;SDS011;59992;47.490;8.736;2023-08-12T06:03:16;6.60;;;3.20;;
72117;SDS011;59992;47.490;8.736;2023-08-12T06:06:06;5.40;;;2.70;;
72117;SDS011;59992;47.490;8.736;2023-08-12T06:08:56;4.40;;;2.90;;
72117;SDS011;59992;47.490;8.736;2023-08-12T06:11:47;5.50;;;3.20;;
72117;SDS011;59992;47.490;8.736;2023-08-12T06:14:37;5.50;;;3.20;;
72117;SDS011;59992;47.490;8.736;2023-08-12T06:17:28;5.70;;;3.70;;
72117;SDS011;59992;47.490;8.736;2023-08-12T06:20:18;6.60;;;3.40;;
72117;SDS011;59992;47.490;8.736;2023-08-12T06:23:09;5.10;;;3.10;;
72117;SDS011;59992;47.490;8.736;2023-08-12T06:25:59;6.40;;;3.10;;
72117;SDS011;59992;47.490;8.736;2023-08-12T06:28:49;5.70;;;3.20;;
72117;SDS011;59992;47.490;8.736;2023-08-12T06:31:40;4.60;;;3.20;;
72117;SDS011;59992;47.490;8.736;2023-08-12T06:34:30;4.30;;;3.30;;
72117;SDS011;59992;47.490;8.736;2023-08-12T06:37:20;4.60;;;3.20;;
72117;SDS011;59992;47.490;8.736;2023-08-12T06:40:11;4.80;;;3.10;;
72117;SDS011;59992;47.490;8.736;2023-08-12T06:43:01;7.90;;;3.30;;
72117;SDS011;59992;47.490;8.736;2023-08-12T06:45:52;4.30;;;3.00;;
72117;SDS011;59992;47.490;8.736;2023-08-12T06:48:43;5.50;;;3.00;;
72117;SDS011;59992;47.490;8.736;2023-08-12T06:51:33;5.90;;;3.10;;
72117;SDS011;59992;47.490;8.736;2023-08-12T06:54:24;5.80;;;3.50;;
72117;SDS011;59992;47.490;8.736;2023-08-12T06:57:14;6.30;;;3.30;;
72117;SDS011;59992;47.490;8.736;2023-08-12T07:00:05;4.80;;;3.10;;
72117;SDS011;59992;47.490;8.736;2023-08-12T07:02:57;7.30;;;2.70;;
72117;SDS011;59992;47.490;8.736;2023-08-12T07:05:48;4.70;;;3.10;;
72117;SDS011;59992;47.490;8.736;2023-08-12T07:08:41;3.80;;;2.70;;
72117;SDS011;59992;47.490;8.736;2023-08-12T07:11:32;4.00;;;2.90;;
72117;SDS011;59992;47.490;8.736;2023-08-12T07:14:22;4.30;;;2.80;;
72117;SDS011;59992;47.490;8.736;2023-08-12T07:17:13;4.30;;;3.10;;
72117;SDS011;59992;47.490;8.736;2023-08-12T07:20:03;5.40;;;2.90;;
72117;SDS011;59992;47.490;8.736;2023-08-12T07:22:55;4.50;;;2.70;;
72117;SDS011;59992;47.490;8.736;2023-08-12T07:25:46;4.90;;;2.90;;
72117;SDS011;59992;47.490;8.736;2023-08-12T07:28:38;4.10;;;2.70;;
72117;SDS011;59992;47.490;8.736;2023-08-12T07:31:28;4.50;;;3.00;;
72117;SDS011;59992;47.490;8.736;2023-08-12T07:34:18;5.50;;;2.70;;
72117;SDS011;59992;47.490;8.736;2023-08-12T07:37:09;5.60;;;2.90;;
72117;SDS011;59992;47.490;8.736;2023-08-12T07:39:59;6.00;;;3.00;;
72117;SDS011;59992;47.490;8.736;2023-08-12T07:42:50;5.70;;;3.00;;
72117;SDS011;59992;47.490;8.736;2023-08-12T07:45:40;5.50;;;2.70;;
72117;SDS011;59992;47.490;8.736;2023-08-12T07:48:30;8.90;;;3.20;;
72117;SDS011;59992;47.490;8.736;2023-08-12T07:51:20;5.00;;;3.10;;
72117;SDS011;59992;47.490;8.736;2023-08-12T07:54:11;5.00;;;3.00;;
72117;SDS011;59992;47.490;8.736;2023-08-12T07:57:01;8.60;;;3.00;;
72117;SDS011;59992;47.490;8.736;2023-08-12T07:59:51;7.00;;;3.00;;
72117;SDS011;59992;47.490;8.736;2023-08-12T08:02:41;4.50;;;3.00;;
72117;SDS011;59992;47.490;8.736;2023-08-12T08:05:31;4.40;;;3.10;;
72117;SDS011;59992;47.490;8.736;2023-08-12T08:08:21;8.10;;;3.40;;
72117;SDS011;59992;47.490;8.736;2023-08-12T08:11:11;4.80;;;3.20;;
72117;SDS011;59992;47.490;8.736;2023-08-12T08:14:01;7.70;;;3.10;;
72117;SDS011;59992;47.490;8.736;2023-08-12T08:16:52;7.50;;;3.10;;
72117;SDS011;59992;47.490;8.736;2023-08-12T08:19:42;4.20;;;3.00;;
72117;SDS011;59992;47.490;8.736;2023-08-12T08:22:32;6.60;;;2.90;;
72117;SDS011;59992;47.490;8.736;2023-08-12T08:25:22;5.80;;;3.00;;
72117;SDS011;59992;47.490;8.736;2023-08-12T08:28:13;3.60;;;3.00;;
72117;SDS011;59992;47.490;8.736;2023-08-12T08:31:03;6.10;;;3.40;;
72117;SDS011;59992;47.490;8.736;2023-08-12T08:33:53;4.20;;;3.10;;
72117;SDS011;59992;47.490;8.736;2023-08-12T08:36:44;4.50;;;3.20;;
72117;SDS011;59992;47.490;8.736;2023-08-12T08:39:34;6.00;;;3.20;;
72117;SDS011;59992;47.490;8.736;2023-08-12T08:42:24;3.40;;;2.90;;
72117;SDS011;59992;47.490;8.736;2023-08-12T08:45:14;4.80;;;3.40;;
72117;SDS011;59992;47.490;8.736;2023-08-12T08:48:07;7.10;;;3.20;;
72117;SDS011;59992;47.490;8.736;2023-08-12T08:50:58;6.10;;;3.00;;
72117;SDS011;59992;47.490;8.736;2023-08-12T08:53:50;5.30;;;2.90;;
72117;SDS011;59992;47.490;8.736;2023-08-12T08:56:44;5.60;;;3.00;;
72117;SDS011;59992;47.490;8.736;2023-08-12T08:59:36;7.30;;;3.20;;
72117;SDS011;59992;47.490;8.736;2023-08-12T09:02:27;4.70;;;2.90;;
72117;SDS011;59992;47.490;8.736;2023-08-12T09:05:18;5.50;;;3.40;;
72117;SDS011;59992;47.490;8.736;2023-08-12T09:08:08;5.40;;;3.30;;
72117;SDS011;59992;47.490;8.736;2023-08-12T09:11:00;4.90;;;3.00;;
72117;SDS011;59992;47.490;8.736;2023-08-12T09:13:52;6.60;;;3.60;;
72117;SDS011;59992;47.490;8.736;2023-08-12T09:16:42;4.40;;;3.30;;
72117;SDS011;59992;47.490;8.736;2023-08-12T09:19:32;6.20;;;3.30;;
72117;SDS011;59992;47.490;8.736;2023-08-12T09:22:22;7.40;;;3.10;;
72117;SDS011;59992;47.490;8.736;2023-08-12T09:25:14;4.10;;;3.30;;
72117;SDS011;59992;47.490;8.736;2023-08-12T09:28:10;3.90;;;2.90;;
72117;SDS011;59992;47.490;8.736;2023-08-12T09:31:02;5.00;;;3.20;;
72117;SDS011;59992;47.490;8.736;2023-08-12T09:33:58;7.30;;;3.20;;
72117;SDS011;59992;47.490;8.736;2023-08-12T09:36:52;4.30;;;3.10;;
72117;SDS011;59992;47.490;8.736;2023-08-12T09:39:43;5.60;;;3.30;;
72117;SDS011;59992;47.490;8.736;2023-08-12T09:42:34;7.50;;;3.50;;
72117;SDS011;59992;47.490;8.736;2023-08-12T09:45:33;6.00;;;3.70;;
72117;SDS011;59992;47.490;8.736;2023-08-12T09:48:24;6.70;;;3.50;;
72117;SDS011;59992;47.490;8.736;2023-08-12T09:51:14;5.30;;;3.40;;
72117;SDS011;59992;47.490;8.736;2023-08-12T09:54:05;4.60;;;3.20;;
72117;SDS011;59992;47.490;8.736;2023-08-12T09:56:58;5.00;;;3.40;;
72117;SDS011;59992;47.490;8.736;2023-08-12T09:59:48;5.30;;;3.50;;
72117;SDS011;59992;47.490;8.736;2023-08-12T10:02:41;5.90;;;3.50;;
72117;SDS011;59992;47.490;8.736;2023-08-12T10:05:32;6.10;;;3.50;;
72117;SDS011;59992;47.490;8.736;2023-08-12T10:08:23;5.10;;;3.70;;
72117;SDS011;59992;47.490;8.736;2023-08-12T10:11:14;6.50;;;3.60;;
72117;SDS011;59992;47.490;8.736;2023-08-12T10:14:04;4.50;;;3.50;;
72117;SDS011;59992;47.490;8.736;2023-08-12T10:16:57;5.40;;;3.50;;
72117;SDS011;59992;47.490;8.736;2023-08-12T10:19:48;4.60;;;2.90;;
72117;SDS011;59992;47.490;8.736;2023-08-12T10:22:45;3.70;;;3.00;;
72117;SDS011;59992;47.490;8.736;2023-08-12T10:25:36;5.30;;;3.10;;
72117;SDS011;59992;47.490;8.736;2023-08-12T10:28:30;4.40;;;3.10;;
72117;SDS011;59992;47.490;8.736;2023-08-12T10:31:24;6.00;;;3.30;;
72117;SDS011;59992;47.490;8.736;2023-08-12T10:34:20;4.70;;;3.20;;
72117;SDS011;59992;47.490;8.736;2023-08-12T10:37:11;6.20;;;3.10;;
72117;SDS011;59992;47.490;8.736;2023-08-12T10:40:03;5.20;;;3.30;;
72117;SDS011;59992;47.490;8.736;2023-08-12T10:43:07;4.80;;;3.60;;
72117;SDS011;59992;47.490;8.736;2023-08-12T10:46:00;5.40;;;3.10;;
72117;SDS011;59992;47.490;8.736;2023-08-12T10:49:02;4.80;;;2.80;;
72117;SDS011;59992;47.490;8.736;2023-08-12T10:51:54;4.00;;;2.80;;
72117;SDS011;59992;47.490;8.736;2023-08-12T10:54:44;5.00;;;2.90;;
72117;SDS011;59992;47.490;8.736;2023-08-12T10:57:35;5.90;;;3.00;;
72117;SDS011;59992;47.490;8.736;2023-08-12T11:00:27;3.50;;;2.80;;
72117;SDS011;59992;47.490;8.736;2023-08-12T11:03:19;3.40;;;2.70;;
72117;SDS011;59992;47.490;8.736;2023-08-12T11:06:09;4.70;;;2.60;;
72117;SDS011;59992;47.490;8.736;2023-08-12T11:09:00;4.70;;;3.00;;
72117;SDS011;59992;47.490;8.736;2023-08-12T11:11:58;4.40;;;3.00;;
72117;SDS011;59992;47.490;8.736;2023-08-12T11:14:49;4.20;;;2.70;;
72117;SDS011;59992;47.490;8.736;2023-08-12T11:17:45;3.30;;;2.50;;
72117;SDS011;59992;47.490;8.736;2023-08-12T11:20:36;4.90;;;2.60;;
72117;SDS011;59992;47.490;8.736;2023-08-12T11:23:27;5.00;;;2.80;;
72117;SDS011;59992;47.490;8.736;2023-08-12T11:26:17;4.50;;;2.70;;
72117;SDS011;59992;47.490;8.736;2023-08-12T11:29:10;6.80;;;3.10;;
72117;SDS011;59992;47.490;8.736;2023-08-12T11:32:01;4.10;;;2.80;;
72117;SDS011;59992;47.490;8.736;2023-08-12T11:34:53;6.90;;;2.70;;
72117;SDS011;59992;47.490;8.736;2023-08-12T11:37:45;4.40;;;2.90;;
72117;SDS011;59992;47.490;8.736;2023-08-12T11:40:36;7.00;;;2.90;;
72117;SDS011;59992;47.490;8.736;2023-08-12T11:43:28;4.10;;;2.70;;
72117;SDS011;59992;47.490;8.736;2023-08-12T11:46:20;5.80;;;3.20;;
72117;SDS011;59992;47.490;8.736;2023-08-12T11:49:10;5.40;;;2.80;;
72117;SDS011;59992;47.490;8.736;2023-08-12T11:52:00;9.60;;;3.40;;
72117;SDS011;59992;47.490;8.736;2023-08-12T11:54:51;6.60;;;3.10;;
72117;SDS011;59992;47.490;8.736;2023-08-12T11:57:41;7.70;;;3.50;;
72117;SDS011;59992;47.490;8.736;2023-08-12T12:00:32;5.40;;;3.40;;
72117;SDS011;59992;47.490;8.736;2023-08-12T12:03:29;5.30;;;3.00;;
72117;SDS011;59992;47.490;8.736;2023-08-12T12:06:28;4.70;;;3.20;;
72117;SDS011;59992;47.490;8.736;2023-08-12T12:09:19;5.60;;;3.50;;
72117;SDS011;59992;47.490;8.736;2023-08-12T12:12:10;6.00;;;3.30;;
72117;SDS011;59992;47.490;8.736;2023-08-12T12:15:00;6.00;;;3.50;;
72117;SDS011;59992;47.490;8.736;2023-08-12T12:17:52;4.90;;;3.20;;
72117;SDS011;59992;47.490;8.736;2023-08-12T12:20:55;5.50;;;3.50;;
72117;SDS011;59992;47.490;8.736;2023-08-12T12:23:46;5.60;;;3.00;;
72117;SDS011;59992;47.490;8.736;2023-08-12T12:26:40;6.30;;;3.40;;
72117;SDS011;59992;47.490;8.736;2023-08-12T12:29:32;5.80;;;2.90;;
72117;SDS011;59992;47.490;8.736;2023-08-12T12:32:23;7.10;;;2.90;;
72117;SDS011;59992;47.490;8.736;2023-08-12T12:35:13;5.80;;;2.70;;
72117;SDS011;59992;47.490;8.736;2023-08-12T12:38:03;3.60;;;2.40;;
72117;SDS011;59992;47.490;8.736;2023-08-12T12:40:53;5.30;;;3.00;;
72117;SDS011;59992;47.490;8.736;2023-08-12T12:43:43;4.60;;;2.70;;
72117;SDS011;59992;47.490;8.736;2023-08-12T12:46:33;5.70;;;2.80;;
72117;SDS011;59992;47.490;8.736;2023-08-12T12:49:24;4.50;;;2.80;;
72117;SDS011;59992;47.490;8.736;2023-08-12T12:52:15;5.90;;;2.70;;
72117;SDS011;59992;47.490;8.736;2023-08-12T12:55:06;4.30;;;2.90;;
72117;SDS011;59992;47.490;8.736;2023-08-12T12:57:57;4.60;;;2.80;;
72117;SDS011;59992;47.490;8.736;2023-08-12T13:00:47;4.40;;;2.50;;
72117;SDS011;59992;47.490;8.736;2023-08-12T13:03:37;3.80;;;2.20;;
72117;SDS011;59992;47.490;8.736;2023-08-12T13:06:28;5.60;;;2.60;;
72117;SDS011;59992;47.490;8.736;2023-08-12T13:09:18;4.20;;;2.20;;
72117;SDS011;59992;47.490;8.736;2023-08-12T13:12:08;4.60;;;2.30;;
72117;SDS011;59992;47.490;8.736;2023-08-12T13:14:58;5.60;;;2.00;;
72117;SDS011;59992;47.490;8.736;2023-08-12T13:17:49;2.90;;;1.90;;
72117;SDS011;59992;47.490;8.736;2023-08-12T13:20:39;3.70;;;1.70;;
72117;SDS011;59992;47.490;8.736;2023-08-12T13:23:29;5.00;;;2.10;;
72117;SDS011;59992;47.490;8.736;2023-08-12T13:26:19;3.40;;;2.00;;
72117;SDS011;59992;47.490;8.736;2023-08-12T13:29:09;3.50;;;2.10;;
72117;SDS011;59992;47.490;8.736;2023-08-12T13:32:00;3.40;;;2.00;;
72117;SDS011;59992;47.490;8.736;2023-08-12T13:34:50;3.00;;;2.00;;
72117;SDS011;59992;47.490;8.736;2023-08-12T13:37:40;2.80;;;2.00;;
72117;SDS011;59992;47.490;8.736;2023-08-12T13:40:30;3.50;;;1.80;;
72117;SDS011;59992;47.490;8.736;2023-08-12T13:43:20;3.30;;;2.00;;
72117;SDS011;59992;47.490;8.736;2023-08-12T13:46:10;5.20;;;1.90;;
72117;SDS011;59992;47.490;8.736;2023-08-12T13:49:00;3.50;;;1.70;;
72117;SDS011;59992;47.490;8.736;2023-08-12T13:51:50;3.50;;;1.60;;
72117;SDS011;59992;47.490;8.736;2023-08-12T13:54:40;2.10;;;1.60;;
72117;SDS011;59992;47.490;8.736;2023-08-12T13:57:30;2.80;;;1.50;;
72117;SDS011;59992;47.490;8.736;2023-08-12T14:00:21;3.10;;;2.00;;
72117;SDS011;59992;47.490;8.736;2023-08-12T14:03:11;3.20;;;1.90;;
72117;SDS011;59992;47.490;8.736;2023-08-12T14:06:02;3.50;;;2.10;;
72117;SDS011;59992;47.490;8.736;2023-08-12T14:08:52;3.00;;;2.00;;
72117;SDS011;59992;47.490;8.736;2023-08-12T14:11:42;4.10;;;2.10;;
72117;SDS011;59992;47.490;8.736;2023-08-12T14:14:32;2.90;;;1.70;;
72117;SDS011;59992;47.490;8.736;2023-08-12T14:17:22;3.40;;;2.10;;
72117;SDS011;59992;47.490;8.736;2023-08-12T14:20:13;3.00;;;2.10;;
72117;SDS011;59992;47.490;8.736;2023-08-12T14:23:03;4.50;;;2.00;;
72117;SDS011;59992;47.490;8.736;2023-08-12T14:25:53;4.50;;;2.00;;
72117;SDS011;59992;47.490;8.736;2023-08-12T14:28:43;3.70;;;2.20;;
72117;SDS011;59992;47.490;8.736;2023-08-12T14:31:33;4.40;;;2.00;;
72117;SDS011;59992;47.490;8.736;2023-08-12T14:34:24;4.40;;;2.10;;
72117;SDS011;59992;47.490;8.736;2023-08-12T14:37:14;3.90;;;2.10;;
72117;SDS011;59992;47.490;8.736;2023-08-12T14:40:04;3.20;;;1.90;;
72117;SDS011;59992;47.490;8.736;2023-08-12T14:42:56;3.20;;;2.00;;
72117;SDS011;59992;47.490;8.736;2023-08-12T14:45:46;4.00;;;2.10;;
72117;SDS011;59992;47.490;8.736;2023-08-12T14:48:36;4.30;;;2.00;;
72117;SDS011;59992;47.490;8.736;2023-08-12T14:51:27;3.50;;;2.20;;
72117;SDS011;59992;47.490;8.736;2023-08-12T14:54:18;4.10;;;2.10;;
72117;SDS011;59992;47.490;8.736;2023-08-12T14:57:08;3.80;;;2.20;;
72117;SDS011;59992;47.490;8.736;2023-08-12T14:59:58;5.10;;;2.20;;
72117;SDS011;59992;47.490;8.736;2023-08-12T15:02:48;4.10;;;2.10;;
72117;SDS011;59992;47.490;8.736;2023-08-12T15:05:39;4.70;;;2.40;;
72117;SDS011;59992;47.490;8.736;2023-08-12T15:08:30;4.30;;;1.90;;
72117;SDS011;59992;47.490;8.736;2023-08-12T15:11:20;3.10;;;2.00;;
72117;SDS011;59992;47.490;8.736;2023-08-12T15:14:11;4.70;;;2.20;;
72117;SDS011;59992;47.490;8.736;2023-08-12T15:17:01;4.90;;;2.40;;
72117;SDS011;59992;47.490;8.736;2023-08-12T15:19:51;4.10;;;2.20;;
72117;SDS011;59992;47.490;8.736;2023-08-12T15:22:41;6.70;;;2.10;;
72117;SDS011;59992;47.490;8.736;2023-08-12T15:25:31;4.40;;;2.30;;
72117;SDS011;59992;47.490;8.736;2023-08-12T15:28:21;4.70;;;2.50;;
72117;SDS011;59992;47.490;8.736;2023-08-12T15:31:12;5.10;;;2.60;;
72117;SDS011;59992;47.490;8.736;2023-08-12T15:34:02;3.70;;;2.70;;
72117;SDS011;59992;47.490;8.736;2023-08-12T15:36:52;4.80;;;2.20;;
72117;SDS011;59992;47.490;8.736;2023-08-12T15:39:42;4.70;;;2.40;;
72117;SDS011;59992;47.490;8.736;2023-08-12T15:42:32;4.70;;;3.10;;
72117;SDS011;59992;47.490;8.736;2023-08-12T15:45:23;5.60;;;2.70;;
72117;SDS011;59992;47.490;8.736;2023-08-12T15:48:13;6.80;;;3.40;;
72117;SDS011;59992;47.490;8.736;2023-08-12T15:51:03;4.70;;;3.10;;
72117;SDS011;59992;47.490;8.736;2023-08-12T15:53:53;6.20;;;3.20;;
72117;SDS011;59992;47.490;8.736;2023-08-12T15:56:44;4.40;;;3.00;;
72117;SDS011;59992;47.490;8.736;2023-08-12T15:59:34;4.30;;;3.30;;
72117;SDS011;59992;47.490;8.736;2023-08-12T16:02:25;5.60;;;3.20;;
72117;SDS011;59992;47.490;8.736;2023-08-12T16:05:15;6.00;;;2.70;;
72117;SDS011;59992;47.490;8.736;2023-08-12T16:08:05;4.10;;;2.90;;
72117;SDS011;59992;47.490;8.736;2023-08-12T16:10:57;5.30;;;3.40;;
72117;SDS011;59992;47.490;8.736;2023-08-12T16:13:47;5.80;;;2.80;;
72117;SDS011;59992;47.490;8.736;2023-08-12T16:16:37;4.40;;;2.60;;
72117;SDS011;59992;47.490;8.736;2023-08-12T16:19:27;4.50;;;3.20;;
72117;SDS011;59992;47.490;8.736;2023-08-12T16:22:17;5.40;;;3.30;;
72117;SDS011;59992;47.490;8.736;2023-08-12T16:25:08;7.40;;;3.10;;
72117;SDS011;59992;47.490;8.736;2023-08-12T16:27:59;5.20;;;3.30;;
72117;SDS011;59992;47.490;8.736;2023-08-12T16:30:49;6.40;;;3.20;;
72117;SDS011;59992;47.490;8.736;2023-08-12T16:33:39;6.00;;;3.30;;
72117;SDS011;59992;47.490;8.736;2023-08-12T16:36:29;5.20;;;3.20;;
72117;SDS011;59992;47.490;8.736;2023-08-12T16:39:19;7.60;;;3.40;;
72117;SDS011;59992;47.490;8.736;2023-08-12T16:42:09;7.00;;;3.20;;
72117;SDS011;59992;47.490;8.736;2023-08-12T16:44:59;6.00;;;3.20;;
72117;SDS011;59992;47.490;8.736;2023-08-12T16:47:51;5.50;;;3.40;;
72117;SDS011;59992;47.490;8.736;2023-08-12T16:50:41;6.90;;;3.80;;
72117;SDS011;59992;47.490;8.736;2023-08-12T16:53:31;6.80;;;3.10;;
72117;SDS011;59992;47.490;8.736;2023-08-12T16:56:21;4.70;;;3.20;;
72117;SDS011;59992;47.490;8.736;2023-08-12T16:59:11;7.50;;;3.20;;
72117;SDS011;59992;47.490;8.736;2023-08-12T17:02:02;5.10;;;3.30;;
72117;SDS011;59992;47.490;8.736;2023-08-12T17:04:52;5.60;;;3.30;;
72117;SDS011;59992;47.490;8.736;2023-08-12T17:07:43;7.80;;;3.70;;
72117;SDS011;59992;47.490;8.736;2023-08-12T17:10:33;5.10;;;3.30;;